createdAt,value
2017-07-17T00:00:32.232Z,18.00
2017-07-17T00:02:59.703Z,18.00
2017-07-17T00:05:27.187Z,17.90
2017-07-17T00:07:54.701Z,17.90
2017-07-17T00:10:22.189Z,17.90
2017-07-17T00:12:49.674Z,17.90
2017-07-17T00:15:17.156Z,17.90
2017-07-17T00:17:45.426Z,17.90
2017-07-17T00:20:13.673Z,17.80
2017-07-17T00:22:41.156Z,17.80
2017-07-17T00:25:09.391Z,17.80
2017-07-17T00:27:36.918Z,17.80
2017-07-17T00:30:04.397Z,17.70
2017-07-17T00:32:31.868Z,17.70
2017-07-17T00:34:59.382Z,17.70
2017-07-17T00:37:26.854Z,17.80
2017-07-17T00:39:54.329Z,17.80
2017-07-17T00:42:22.361Z,17.80
2017-07-17T00:44:50.812Z,17.70
2017-07-17T00:47:18.313Z,17.70
2017-07-17T00:49:45.798Z,17.70
2017-07-17T00:52:13.275Z,17.70
2017-07-17T00:54:40.783Z,17.60
2017-07-17T00:57:08.249Z,17.60
2017-07-17T00:59:35.721Z,17.50
2017-07-17T01:02:03.214Z,17.50
2017-07-17T01:04:30.696Z,17.50
2017-07-17T01:06:58.947Z,17.50
2017-07-17T01:09:26.442Z,17.50
2017-07-17T01:11:53.931Z,17.50
2017-07-17T01:14:21.410Z,17.40
2017-07-17T01:16:48.903Z,17.40
2017-07-17T01:19:17.153Z,17.40
2017-07-17T01:21:44.637Z,17.40
2017-07-17T01:24:12.895Z,17.40
2017-07-17T01:26:40.393Z,17.30
2017-07-17T01:29:07.881Z,17.40
2017-07-17T01:31:36.187Z,17.40
2017-07-17T01:34:03.686Z,17.40
2017-07-17T01:36:31.195Z,17.30
2017-07-17T01:38:58.715Z,17.30
2017-07-17T01:41:26.202Z,17.30
2017-07-17T01:43:53.865Z,17.30
2017-07-17T01:46:21.358Z,17.00
2017-07-17T01:48:49.614Z,17.10
2017-07-17T01:51:17.102Z,17.10
2017-07-17T01:53:44.606Z,17.10
2017-07-17T01:56:12.104Z,17.10
2017-07-17T01:58:40.351Z,17.10
2017-07-17T02:01:07.857Z,17.10
2017-07-17T02:03:35.329Z,17.10
2017-07-17T02:06:03.680Z,17.10
2017-07-17T02:08:31.917Z,17.10
2017-07-17T02:10:59.402Z,17.00
2017-07-17T02:13:27.656Z,16.90
2017-07-17T02:15:55.158Z,16.90
2017-07-17T02:18:22.631Z,16.90
2017-07-17T02:20:50.121Z,16.70
2017-07-17T02:23:17.585Z,16.80
2017-07-17T02:25:45.079Z,16.70
2017-07-17T02:28:13.327Z,16.70
2017-07-17T02:30:40.834Z,16.70
2017-07-17T02:33:08.300Z,16.70
2017-07-17T02:35:35.782Z,16.70
2017-07-17T02:38:03.303Z,16.60
2017-07-17T02:40:30.791Z,16.70
2017-07-17T02:42:58.273Z,16.70
2017-07-17T02:45:25.747Z,16.70
2017-07-17T02:47:53.233Z,16.70
2017-07-17T02:50:20.722Z,16.70
2017-07-17T02:52:48.223Z,16.70
2017-07-17T02:55:16.462Z,16.80
2017-07-17T02:57:43.970Z,16.80
2017-07-17T03:00:12.206Z,16.80
2017-07-17T03:02:39.698Z,16.70
2017-07-17T03:05:07.938Z,16.80
2017-07-17T03:07:35.402Z,16.80
2017-07-17T03:10:02.881Z,16.80
2017-07-17T03:12:31.139Z,16.70
2017-07-17T03:14:58.624Z,16.70
2017-07-17T03:17:26.862Z,16.70
2017-07-17T03:19:54.360Z,16.60
2017-07-17T03:22:22.595Z,16.60
2017-07-17T03:24:50.090Z,16.60
2017-07-17T03:27:18.330Z,16.70
2017-07-17T03:29:45.822Z,16.60
2017-07-17T03:32:14.062Z,16.60
2017-07-17T03:34:41.658Z,16.60
2017-07-17T03:37:09.903Z,16.50
2017-07-17T03:39:37.382Z,16.50
2017-07-17T03:42:04.862Z,16.60
2017-07-17T03:44:32.427Z,16.50
2017-07-17T03:46:59.924Z,16.50
2017-07-17T03:49:27.443Z,16.50
2017-07-17T03:51:54.930Z,16.60
2017-07-17T03:54:22.420Z,16.60
2017-07-17T03:56:49.917Z,16.60
2017-07-17T03:59:17.391Z,16.60
2017-07-17T04:01:44.895Z,16.50
2017-07-17T04:04:12.394Z,16.60
2017-07-17T04:06:39.884Z,16.50
2017-07-17T04:09:07.369Z,16.40
2017-07-17T04:11:34.951Z,16.50
2017-07-17T04:14:03.222Z,16.50
2017-07-17T04:16:31.459Z,16.50
2017-07-17T04:18:58.963Z,16.50
2017-07-17T04:21:27.201Z,16.50
2017-07-17T04:23:54.703Z,16.50
2017-07-17T04:26:22.946Z,16.50
2017-07-17T04:28:50.456Z,16.60
2017-07-17T04:31:17.940Z,16.50
2017-07-17T04:33:45.418Z,16.50
2017-07-17T04:36:14.231Z,16.60
2017-07-17T04:38:42.493Z,16.70
2017-07-17T04:41:09.983Z,16.70
2017-07-17T04:43:37.474Z,16.80
2017-07-17T04:46:04.963Z,16.80
2017-07-17T04:48:32.434Z,16.80
2017-07-17T04:51:00.701Z,16.70
2017-07-17T04:53:28.188Z,16.70
2017-07-17T04:55:55.699Z,16.80
2017-07-17T04:58:23.167Z,16.90
2017-07-17T05:00:50.649Z,17.00
2017-07-17T05:03:18.912Z,17.10
2017-07-17T05:05:46.389Z,17.10
2017-07-17T05:08:14.653Z,17.20
2017-07-17T05:10:42.145Z,17.20
2017-07-17T05:13:09.643Z,17.40
2017-07-17T05:15:37.120Z,17.50
2017-07-17T05:18:04.628Z,17.60
2017-07-17T05:20:32.110Z,17.70
2017-07-17T05:22:59.593Z,17.70
2017-07-17T05:25:27.867Z,17.80
2017-07-17T05:27:55.368Z,17.80
2017-07-17T05:30:22.842Z,17.90
2017-07-17T05:32:50.343Z,17.90
2017-07-17T05:35:17.841Z,18.00
2017-07-17T05:37:45.333Z,18.00
2017-07-17T05:40:12.827Z,18.10
2017-07-17T05:42:41.086Z,17.90
2017-07-17T05:45:08.579Z,17.90
2017-07-17T05:47:36.049Z,17.90
2017-07-17T05:50:03.557Z,17.90
2017-07-17T05:52:31.028Z,18.00
2017-07-17T05:54:58.507Z,18.00
2017-07-17T05:57:25.999Z,18.10
2017-07-17T05:59:53.528Z,18.20
2017-07-17T06:02:21.018Z,18.30
2017-07-17T06:04:48.524Z,18.50
2017-07-17T06:07:16.808Z,18.70
2017-07-17T06:09:45.075Z,18.90
2017-07-17T06:12:13.343Z,19.00
2017-07-17T06:14:40.819Z,19.00
2017-07-17T06:17:09.087Z,19.20
2017-07-17T06:19:37.324Z,19.40
2017-07-17T06:22:04.847Z,19.30
2017-07-17T06:24:32.353Z,19.40
2017-07-17T06:26:59.840Z,19.50
2017-07-17T06:29:28.106Z,19.50
2017-07-17T06:31:55.602Z,19.50
2017-07-17T06:34:23.085Z,19.60
2017-07-17T06:36:50.591Z,19.50
2017-07-17T06:39:18.840Z,19.80
2017-07-17T06:41:46.328Z,19.80
2017-07-17T06:44:14.605Z,20.00
2017-07-17T06:46:42.887Z,20.20
2017-07-17T06:49:11.147Z,20.20
2017-07-17T06:51:38.630Z,20.20
2017-07-17T06:54:06.121Z,20.30
2017-07-17T06:56:33.591Z,20.50
2017-07-17T06:59:01.105Z,20.60
2017-07-17T07:01:28.589Z,20.70
2017-07-17T07:03:56.092Z,20.80
2017-07-17T07:06:23.586Z,21.00
2017-07-17T07:08:51.087Z,21.00
2017-07-17T07:11:18.574Z,21.20
2017-07-17T07:13:46.079Z,21.20
2017-07-17T07:16:13.567Z,21.30
2017-07-17T07:18:41.051Z,21.30
2017-07-17T07:21:09.302Z,21.50
2017-07-17T07:23:36.766Z,21.40
2017-07-17T07:26:04.251Z,21.60
2017-07-17T07:28:32.520Z,21.70
2017-07-17T07:31:00.783Z,21.80
2017-07-17T07:33:28.291Z,21.80
2017-07-17T07:35:55.807Z,21.90
2017-07-17T07:38:24.052Z,22.10
2017-07-17T07:40:51.543Z,22.10
2017-07-17T07:43:19.804Z,22.40
2017-07-17T07:45:47.317Z,22.40
2017-07-17T07:48:14.796Z,22.30
2017-07-17T07:50:42.312Z,22.30
2017-07-17T07:53:09.801Z,22.50
2017-07-17T07:55:37.299Z,22.50
2017-07-17T07:58:04.803Z,22.40
2017-07-17T08:00:32.295Z,22.60
2017-07-17T08:02:59.792Z,22.70
2017-07-17T08:05:28.046Z,22.90
2017-07-17T08:07:55.542Z,22.90
2017-07-17T08:10:23.027Z,23.00
2017-07-17T08:12:50.522Z,23.10
2017-07-17T08:15:18.016Z,23.10
2017-07-17T08:17:45.562Z,23.10
2017-07-17T08:20:13.815Z,23.00
2017-07-17T08:22:41.297Z,22.90
2017-07-17T08:25:09.562Z,22.90
2017-07-17T08:27:37.807Z,23.10
2017-07-17T08:30:05.303Z,23.10
2017-07-17T08:32:33.546Z,23.20
2017-07-17T08:35:01.039Z,23.20
2017-07-17T08:37:29.311Z,23.40
2017-07-17T08:39:57.566Z,23.60
2017-07-17T08:42:25.073Z,23.50
2017-07-17T08:44:52.829Z,23.50
2017-07-17T08:47:20.325Z,23.40
2017-07-17T08:49:47.809Z,23.40
2017-07-17T08:52:15.298Z,23.50
2017-07-17T08:54:42.835Z,23.30
2017-07-17T08:57:11.104Z,23.40
2017-07-17T08:59:38.583Z,23.40
2017-07-17T09:02:06.129Z,23.50
2017-07-17T09:04:34.379Z,23.60
2017-07-17T09:07:01.872Z,23.60
2017-07-17T09:09:30.126Z,23.70
2017-07-17T09:11:57.867Z,23.70
2017-07-17T09:14:25.357Z,23.70
2017-07-17T09:16:53.617Z,24.00
2017-07-17T09:19:21.107Z,24.00
2017-07-17T09:21:48.605Z,24.20
2017-07-17T09:24:16.109Z,24.40
2017-07-17T09:26:44.391Z,24.60
2017-07-17T09:29:12.629Z,24.60
2017-07-17T09:31:40.124Z,24.60
2017-07-17T09:34:08.397Z,24.60
2017-07-17T09:36:36.650Z,24.70
2017-07-17T09:39:04.132Z,24.70
2017-07-17T09:41:32.375Z,24.80
2017-07-17T09:43:59.875Z,24.80
2017-07-17T09:46:28.131Z,24.80
2017-07-17T09:48:56.395Z,24.70
2017-07-17T09:51:23.892Z,24.70
2017-07-17T09:53:51.414Z,24.70
2017-07-17T09:56:18.898Z,24.90
2017-07-17T09:58:47.148Z,25.10
2017-07-17T10:01:14.637Z,25.10
2017-07-17T10:03:42.131Z,25.30
2017-07-17T10:06:09.647Z,25.30
2017-07-17T10:08:37.910Z,25.40
2017-07-17T10:11:06.187Z,25.40
2017-07-17T10:13:34.437Z,25.50
2017-07-17T10:16:01.950Z,25.50
2017-07-17T10:18:29.446Z,25.60
2017-07-17T10:20:56.942Z,25.60
2017-07-17T10:23:25.219Z,25.80
2017-07-17T10:25:53.470Z,25.80
2017-07-17T10:28:20.956Z,25.80
2017-07-17T10:30:49.213Z,26.10
2017-07-17T10:33:16.728Z,26.10
2017-07-17T10:35:44.223Z,26.10
2017-07-17T10:38:11.725Z,26.00
2017-07-17T10:40:39.198Z,25.90
2017-07-17T10:43:06.689Z,25.90
2017-07-17T10:45:34.163Z,25.90
2017-07-17T10:48:02.437Z,25.80
2017-07-17T10:50:29.951Z,25.70
2017-07-17T10:52:57.431Z,25.80
2017-07-17T10:55:24.918Z,25.60
2017-07-17T10:57:52.391Z,25.50
2017-07-17T11:00:20.655Z,26.00
2017-07-17T11:02:48.902Z,26.00
2017-07-17T11:05:16.593Z,26.10
2017-07-17T11:07:44.836Z,26.20
2017-07-17T11:10:12.340Z,26.20
2017-07-17T11:12:39.839Z,26.20
2017-07-17T11:15:07.313Z,26.20
2017-07-17T11:17:34.814Z,26.10
2017-07-17T11:20:03.067Z,26.20
2017-07-17T11:22:30.572Z,26.20
2017-07-17T11:24:58.058Z,26.30
2017-07-17T11:27:25.546Z,26.50
2017-07-17T11:29:53.790Z,26.80
2017-07-17T11:32:22.238Z,26.80
2017-07-17T11:34:49.782Z,26.60
2017-07-17T11:37:17.272Z,26.40
2017-07-17T11:39:44.749Z,26.20
2017-07-17T11:42:12.355Z,26.10
2017-07-17T11:44:39.869Z,26.10
2017-07-17T11:57:19.075Z,26.50
2017-07-17T11:59:46.584Z,26.40
2017-07-17T12:02:14.058Z,26.50
2017-07-17T12:04:41.552Z,26.60
2017-07-17T12:07:09.016Z,26.60
2017-07-17T12:09:36.515Z,26.40
2017-07-17T12:12:04.803Z,26.50
2017-07-17T12:14:32.290Z,26.70
2017-07-17T12:16:59.761Z,27.00
2017-07-17T12:19:27.341Z,27.10
2017-07-17T12:21:55.591Z,27.20
2017-07-17T12:24:23.090Z,27.20
2017-07-17T12:26:52.154Z,27.60
2017-07-17T12:29:19.626Z,27.60
2017-07-17T12:31:47.899Z,28.00
2017-07-17T12:34:15.362Z,28.00
2017-07-17T12:36:43.628Z,27.50
2017-07-17T12:39:11.121Z,27.50
2017-07-17T12:41:38.610Z,27.40
2017-07-17T12:44:06.116Z,27.00
2017-07-17T12:46:34.380Z,27.00
2017-07-17T12:49:02.031Z,27.00
2017-07-17T12:51:29.521Z,27.20
2017-07-17T12:54:04.019Z,27.30
2017-07-17T12:56:31.523Z,27.30
2017-07-17T12:58:59.009Z,27.10
2017-07-17T13:01:26.486Z,26.90
2017-07-17T13:03:53.977Z,26.70
2017-07-17T13:06:21.468Z,26.90
2017-07-17T13:08:48.965Z,26.80
2017-07-17T13:11:16.456Z,26.90
2017-07-17T13:13:43.943Z,26.90
2017-07-17T13:16:11.463Z,26.90
2017-07-17T13:18:39.704Z,27.10
2017-07-17T13:21:07.177Z,27.10
2017-07-17T13:23:34.718Z,27.10
2017-07-17T13:26:02.220Z,27.20
2017-07-17T13:28:30.476Z,27.60
2017-07-17T13:30:58.725Z,27.50
2017-07-17T13:33:26.210Z,27.50
2017-07-17T13:35:54.480Z,27.20
2017-07-17T13:38:21.971Z,27.20
2017-07-17T13:40:49.458Z,27.10
2017-07-17T13:43:16.946Z,26.90
2017-07-17T13:45:44.520Z,26.70
2017-07-17T13:48:12.006Z,26.70
2017-07-17T13:50:39.517Z,26.90
2017-07-17T13:53:06.994Z,27.00
2017-07-17T13:55:35.242Z,27.00
2017-07-17T13:58:02.728Z,27.00
2017-07-17T14:00:30.970Z,26.90
2017-07-17T14:02:58.461Z,26.90
2017-07-17T14:05:25.941Z,26.90
2017-07-17T14:07:53.441Z,26.90
2017-07-17T14:10:20.923Z,27.10
2017-07-17T14:12:48.427Z,27.40
2017-07-17T14:15:15.907Z,27.40
2017-07-17T14:17:43.390Z,27.40
2017-07-17T14:20:10.862Z,27.40
2017-07-17T14:22:38.392Z,27.60
2017-07-17T14:25:05.864Z,27.70
2017-07-17T14:27:33.362Z,28.00
2017-07-17T14:30:00.911Z,28.20
2017-07-17T14:32:29.141Z,28.20
2017-07-17T14:34:56.637Z,28.20
2017-07-17T14:37:24.891Z,28.10
2017-07-17T14:39:52.373Z,28.10
2017-07-17T14:42:21.008Z,28.00
2017-07-17T14:44:48.529Z,27.90
2017-07-17T14:47:16.782Z,27.90
2017-07-17T14:49:44.284Z,27.90
2017-07-17T14:52:11.763Z,27.90
2017-07-17T14:54:39.269Z,27.90
2017-07-17T14:57:07.504Z,27.90
2017-07-17T14:59:34.989Z,27.90
2017-07-17T15:02:02.475Z,28.00
2017-07-17T15:04:29.960Z,28.30
2017-07-17T15:06:57.442Z,28.30
2017-07-17T15:09:24.923Z,28.40
2017-07-17T15:11:53.162Z,28.50
2017-07-17T15:14:20.757Z,28.50
2017-07-17T15:16:48.238Z,28.60
2017-07-17T15:19:15.716Z,28.70
2017-07-17T15:21:43.214Z,28.80
2017-07-17T15:24:13.742Z,28.80
2017-07-17T15:26:41.224Z,28.90
2017-07-17T15:29:09.470Z,28.80
2017-07-17T15:31:36.960Z,28.80
2017-07-17T15:34:05.212Z,28.80
2017-07-17T15:36:32.691Z,28.80
2017-07-17T15:39:00.940Z,28.70
2017-07-17T15:41:28.414Z,28.70
2017-07-17T15:43:55.899Z,28.70
2017-07-17T15:46:23.370Z,28.70
2017-07-17T15:48:50.869Z,28.90
2017-07-17T15:51:18.346Z,28.90
2017-07-17T15:53:45.840Z,29.10
2017-07-17T15:56:13.423Z,29.40
2017-07-17T15:58:40.931Z,29.60
2017-07-17T16:01:09.213Z,29.70
2017-07-17T16:03:37.488Z,29.90
2017-07-17T16:06:04.951Z,29.80
2017-07-17T16:08:33.186Z,30.60
2017-07-17T16:11:00.685Z,30.50
2017-07-17T16:13:28.924Z,31.00
2017-07-17T16:15:56.418Z,30.90
2017-07-17T16:18:23.900Z,31.20
2017-07-17T16:20:51.390Z,31.20
2017-07-17T16:23:18.871Z,31.60
2017-07-17T16:25:46.349Z,31.60
2017-07-17T16:28:13.836Z,31.80
2017-07-17T16:30:41.323Z,32.10
2017-07-17T16:33:08.797Z,32.50
2017-07-17T16:35:36.298Z,32.80
2017-07-17T16:38:03.776Z,33.10
2017-07-17T16:40:31.281Z,33.30
2017-07-17T16:42:58.763Z,33.70
2017-07-17T16:45:26.265Z,34.20
2017-07-17T16:47:53.751Z,34.50
2017-07-17T16:50:21.223Z,34.90
2017-07-17T16:52:48.746Z,35.50
2017-07-17T16:55:16.230Z,34.60
2017-07-17T16:57:43.743Z,33.70
2017-07-17T17:00:11.221Z,34.10
2017-07-17T17:02:38.714Z,34.70
2017-07-17T17:05:06.995Z,36.00
2017-07-17T17:07:35.245Z,36.00
2017-07-17T17:10:02.731Z,36.00
2017-07-17T17:15:24.855Z,34.50
2017-07-17T17:17:52.357Z,34.60
2017-07-17T17:20:19.853Z,34.70
2017-07-17T17:22:47.345Z,34.20
2017-07-17T17:25:15.608Z,34.90
2017-07-17T17:27:43.116Z,34.90
2017-07-17T17:30:10.619Z,34.80
2017-07-17T17:32:38.109Z,34.90
2017-07-17T17:35:06.386Z,35.50
2017-07-17T17:37:33.869Z,35.50
2017-07-17T17:40:01.377Z,35.80
2017-07-17T17:42:28.867Z,35.70
2017-07-17T17:44:56.375Z,35.40
2017-07-17T17:47:23.850Z,34.10
2017-07-17T17:49:51.354Z,32.80
2017-07-17T17:52:18.834Z,31.60
2017-07-17T17:54:46.311Z,30.60
2017-07-17T17:57:13.812Z,29.90
2017-07-17T17:59:41.292Z,29.40
2017-07-17T18:02:08.797Z,28.90
2017-07-17T18:04:37.066Z,28.20
2017-07-17T18:07:04.580Z,28.30
2017-07-17T18:09:32.079Z,27.90
2017-07-17T18:11:59.561Z,27.60
2017-07-17T18:14:27.808Z,27.10
2017-07-17T18:16:55.305Z,27.10
2017-07-17T18:19:23.556Z,26.80
2017-07-17T18:21:51.056Z,26.80
2017-07-17T18:24:18.534Z,26.70
2017-07-17T18:26:46.011Z,26.50
2017-07-17T18:29:13.508Z,26.40
2017-07-17T18:31:44.335Z,26.30
2017-07-17T18:34:12.613Z,26.10
2017-07-17T18:36:40.870Z,26.00
2017-07-17T18:39:08.367Z,25.90
2017-07-17T18:41:37.976Z,25.90
2017-07-17T18:44:06.352Z,25.70
2017-07-17T18:46:33.825Z,25.60
2017-07-17T18:49:01.317Z,25.50
2017-07-17T18:51:28.787Z,25.40
2017-07-17T18:53:56.367Z,25.40
2017-07-17T18:56:24.606Z,25.20
2017-07-17T18:58:52.085Z,25.20
2017-07-17T19:01:19.561Z,25.10
2017-07-17T19:03:47.803Z,25.00
2017-07-17T19:06:15.285Z,25.00
2017-07-17T19:08:42.769Z,24.90
2017-07-17T19:11:10.251Z,24.80
2017-07-17T19:13:37.729Z,24.80
2017-07-17T19:16:05.237Z,24.70
2017-07-17T19:18:32.733Z,24.60
2017-07-17T19:21:00.237Z,24.50
2017-07-17T19:23:28.485Z,24.40
2017-07-17T19:25:55.972Z,24.40
2017-07-17T19:28:24.226Z,24.20
2017-07-17T19:30:51.758Z,24.20
2017-07-17T19:33:19.225Z,24.20
2017-07-17T19:35:46.719Z,24.10
2017-07-17T19:38:14.966Z,24.00
2017-07-17T19:40:42.466Z,24.00
2017-07-17T19:43:10.709Z,23.80
2017-07-17T19:45:38.184Z,23.80
2017-07-17T19:48:05.683Z,23.80
2017-07-17T19:50:33.163Z,23.70
2017-07-17T19:53:00.662Z,23.60
2017-07-17T19:55:28.904Z,23.60
2017-07-17T19:57:56.436Z,23.50
2017-07-17T20:00:23.929Z,23.50
2017-07-17T20:02:51.439Z,23.50
2017-07-17T20:05:18.911Z,23.50
2017-07-17T20:07:46.401Z,23.50
2017-07-17T20:10:13.891Z,23.40
2017-07-17T20:12:42.150Z,23.20
2017-07-17T20:15:09.646Z,23.20
2017-07-17T20:17:37.126Z,23.20
2017-07-17T20:20:04.620Z,23.20
2017-07-17T20:22:32.100Z,23.20
2017-07-17T20:25:00.346Z,23.10
2017-07-17T20:27:27.819Z,23.10
2017-07-17T20:29:55.301Z,23.10
2017-07-17T20:32:23.549Z,22.70
2017-07-17T20:34:51.029Z,22.70
2017-07-17T20:37:19.276Z,22.70
2017-07-17T20:39:46.755Z,22.70
2017-07-17T20:42:14.998Z,22.70
2017-07-17T20:44:42.483Z,22.70
2017-07-17T20:47:09.977Z,22.80
2017-07-17T20:49:37.509Z,22.80
2017-07-17T20:52:05.762Z,22.90
2017-07-17T20:54:33.248Z,22.80
2017-07-17T20:57:01.507Z,22.70
2017-07-17T20:59:28.976Z,22.70
2017-07-17T21:01:57.250Z,22.50
2017-07-17T21:04:25.493Z,22.60
2017-07-17T21:06:52.968Z,22.50
2017-07-17T21:09:20.466Z,22.60
2017-07-17T21:11:47.972Z,22.60
2017-07-17T21:14:15.465Z,22.70
2017-07-17T21:16:43.714Z,22.70
2017-07-17T21:19:11.194Z,22.70
2017-07-17T21:21:39.477Z,22.60
2017-07-17T21:24:07.713Z,22.70
2017-07-17T21:26:35.186Z,22.70
2017-07-17T21:29:03.463Z,22.60
2017-07-17T21:31:31.718Z,22.60
2017-07-17T21:33:59.208Z,22.60
2017-07-17T21:36:27.451Z,22.50
2017-07-17T21:38:55.748Z,22.50
2017-07-17T21:41:23.231Z,22.50
2017-07-17T21:43:52.166Z,22.50
2017-07-17T21:46:19.642Z,22.50
2017-07-17T21:48:47.125Z,22.50
2017-07-17T21:51:15.370Z,22.50
2017-07-17T21:53:42.842Z,22.50
2017-07-17T21:56:10.322Z,22.50
2017-07-17T21:58:38.571Z,22.30
2017-07-17T22:01:06.060Z,22.30
2017-07-17T22:03:34.330Z,22.30
2017-07-17T22:06:02.603Z,22.20
2017-07-17T22:08:30.890Z,22.20
2017-07-17T22:10:59.135Z,22.20
2017-07-17T22:13:26.601Z,22.20
2017-07-17T22:15:54.099Z,22.10
2017-07-17T22:18:21.569Z,21.90
2017-07-17T22:20:49.055Z,21.90
2017-07-17T22:23:16.646Z,21.80
2017-07-17T22:25:44.896Z,21.90
2017-07-17T22:28:12.383Z,21.90
2017-07-17T22:30:41.176Z,21.90
2017-07-17T22:33:09.438Z,21.90
2017-07-17T22:35:36.945Z,21.90
2017-07-17T22:38:04.423Z,22.00
2017-07-17T22:40:31.904Z,22.00
2017-07-17T22:43:00.170Z,22.00
2017-07-17T22:45:27.649Z,22.00
2017-07-17T22:47:55.136Z,22.00
2017-07-17T22:50:22.603Z,21.90
2017-07-17T22:52:50.111Z,21.90
2017-07-17T22:55:17.700Z,21.90
2017-07-17T22:57:45.178Z,21.90
2017-07-17T23:00:12.674Z,21.80
2017-07-17T23:02:40.165Z,21.80
2017-07-17T23:05:08.455Z,21.70
2017-07-17T23:07:35.944Z,21.70
2017-07-17T23:10:03.444Z,21.70
2017-07-17T23:12:31.679Z,21.70
2017-07-17T23:14:59.180Z,21.70
2017-07-17T23:17:26.647Z,21.60
2017-07-17T23:19:54.944Z,21.60
2017-07-17T23:22:22.449Z,21.60
2017-07-17T23:24:49.935Z,21.50
2017-07-17T23:27:18.183Z,21.40
2017-07-17T23:29:45.657Z,21.40
2017-07-17T23:32:13.136Z,21.30
2017-07-17T23:34:41.386Z,21.00
2017-07-17T23:37:09.675Z,21.00
2017-07-17T23:39:37.147Z,21.00
2017-07-17T23:42:05.403Z,21.10
2017-07-17T23:44:33.670Z,21.10
2017-07-17T23:47:01.159Z,21.10
2017-07-17T23:49:28.633Z,21.10
2017-07-17T23:51:56.110Z,21.00
2017-07-17T23:54:23.900Z,21.00
2017-07-17T23:56:51.390Z,21.00
2017-07-17T23:59:19.650Z,20.90
